Olympic National Park, WA

5:14 AM PDT on October 22, 2014 (GMT -0700)
Lake Dawn | Change Station
CLOSE
Current Station
Personal Weather Station
Location: Port Angeles, WA
Elevation: 1864 ft
Nearby Weather Stations
Active Advisory: Flood Warning

Elev 1864 ft 48.04 °N, 123.43 °W | Updated 14 minutes ago

Rain
Rain
50.0 °F
Feels Like 50.0 °F
N
1.6
Wind Variable Wind from SW
Gusts 3.1 mph

Today
High -- | Low -- °F
--% Chance of Precip.
Yesterday
High -- | Low -- °F
Precip. -- in
7:43 AM 6:12 PM
Waning Crescent, 2% visible
Pressure 29.57 in
Visibility 10.0 miles
Clouds Mostly Cloudy 7000 ft
Mostly Cloudy 8000 ft
Overcast 9000 ft
Dew Point 50 °F
Humidity 99%
Rainfall 0.76 in
Snow Depth 1 in
UV 0 out of 12
Pollen .40 out of 12
PM2.5 Good
Flu Activity Sporadic
METAR KCLM 221153Z AUTO 00000KT 10SM -RA BKN070 BKN080 OVC090 12/11 A2957 RMK AO2 PRESRR SLP013 P0004 60032 70044 T01220111 10128 20111 51017 TSNO $

More Conditions Fewer Conditions

Pressure 29.57 in
Visibility 10.0 miles
Clouds Mostly Cloudy 7000 ft
Mostly Cloudy 8000 ft
Overcast 9000 ft
Dew Point 50 °F
Humidity 99%
Rainfall 0.76 in
Snow Depth 1 in
UV 0 out of 12
Pollen .40 out of 12
PM2.5 Good
Flu Activity Sporadic
METAR KCLM 221153Z AUTO 00000KT 10SM -RA BKN070 BKN080 OVC090 12/11 A2957 RMK AO2 PRESRR SLP013 P0004 60032 70044 T01220111 10128 20111 51017 TSNO $

More Conditions Fewer Conditions

10-Day Weather Forecast

Almanac

Astronomy

Oct. 22, 2014 Rise Set
Actual Time 7:43 AM PDT 6:12 PM PDT
Civil Twilight 7:12 AM PDT 6:43 PM PDT
Nautical Twilight 6:36 AM PDT 7:20 PM PDT
Astronomical Twilight 6:00 AM PDT 7:55 PM PDT
Moon 6:25 AM PDT 5:45 PM PDT
Length of Visible Light 11h 31m
Length of Day
10h 28m
Tomorrow will be 3m 18s shorter.
Waning Crescent, 2% of the Moon is Illuminated
Today
Waning Crescent
Oct 23
New
Oct 30
First Quarter
Nov 6
Full
Nov 14
Last Quarter

Today's Extremes

State Highs State Lows

Community

WunderPhotos

Upload Photos

1,763,906 photos uploaded!

Nearby

Air Quality

  Air Quality AQ Index Pollutant
Yesterday Good
PM2.5
Current Good
PM2.5

Snow Depth

Station Depth Elevation
Waterhole 1 in 5000 ft
Dungeness 0 in 4100 ft
Alpine Meadows 0 in 3500 ft
Elbow Lake 0 in 3200 ft
Mf Nooksack 2 in 4980 ft

Earthquake Activity

City Distance Mag. Time & Date
No recent earthquake activity has been reported nearby.
Minimum magnitude displayed is 2.5.

Coastal Water Temperatures

Place Temperature
Port Angeles, WA 57.0 °F
Friday Harbor, WA 51.1 °F
Port Townsend, WA 53.1 °F
La Push, WA 54.0 °F

Nearby Weather Stations